Time;durP1;ratioP1;P1;durP2;ratioP2;P2;SDS_P1;SDS_P2;PMS_P1;PMS_P2;Temp;Humidity;BMP_temperature;BMP_pressure;BME280_temperature;BME280_humidity;BME280_pressure;Samples;Min_cycle;Max_cycle;Signal;HPM_P1;HPM_P2
2023/03/18 00:01:08;;;;;;;;;;;;;;;7.81;57.00;97536.69;5073712;28;19931;-56
2023/03/18 00:03:37;;;;;;;;;;;;;;;7.80;56.65;97533.19;5085692;28;19924;-57
2023/03/18 00:06:06;;;;;;;;;;;;;;;7.87;56.77;97544.41;5088444;28;19924;-56
2023/03/18 00:08:34;;;;;;;;;;;;;;;7.75;57.20;97541.41;5072772;28;19928;-56
2023/03/18 00:11:02;;;;;;;;;;;;;;;7.67;56.94;97541.31;5089073;28;19924;-56
2023/03/18 00:13:32;;;;;;;;;;;;;;;7.69;57.05;97534.50;5086900;28;20584;-58
2023/03/18 00:16:01;;;;;;;;;;;;;;;7.73;56.60;97535.50;5076281;28;19939;-56
2023/03/18 00:18:31;;;;;;;;;;;;;;;7.70;57.45;97538.00;5081967;28;19928;-57
2023/03/18 00:20:59;;;;;;;;;;;;;;;7.69;56.98;97542.63;5073897;28;20293;-56
2023/03/18 00:23:27;;;;;;;;;;;;;;;7.59;57.32;97545.53;5083458;28;19924;-56
2023/03/18 00:25:56;;;;;;;;;;;;;;;7.45;58.33;97536.59;5089878;28;20331;-56
2023/03/18 00:28:24;;;;;;;;;;;;;;;7.46;58.28;97541.72;5076384;28;20262;-56
2023/03/18 00:30:53;;;;;;;;;;;;;;;7.48;57.75;97544.13;5086317;28;19924;-56
2023/03/18 00:33:22;;;;;;;;;;;;;;;7.48;57.56;97549.53;5082280;28;20285;-56
2023/03/18 00:35:49;;;;;;;;;;;;;;;7.55;57.44;97552.63;5078049;28;19924;-56
2023/03/18 00:38:20;;;;;;;;;;;;;;;7.34;58.24;97550.31;5086955;28;19924;-56
2023/03/18 00:41:00;;;;;;;;;;;;;;;7.42;58.07;97546.13;5081755;28;19929;-57
2023/03/18 00:43:32;;;;;;;;;;;;;;;7.35;58.28;97551.94;5081761;28;19929;-56
2023/03/18 00:46:06;;;;;;;;;;;;;;;7.35;58.53;97546.53;5091309;28;19974;-56
2023/03/18 00:48:35;;;;;;;;;;;;;;;7.42;57.96;97556.94;5089763;28;19924;-56
2023/03/18 00:51:03;;;;;;;;;;;;;;;7.40;57.36;97547.50;5084329;28;19924;-57
2023/03/18 00:53:30;;;;;;;;;;;;;;;7.42;57.08;97556.94;5096957;28;19939;-58
2023/03/18 00:55:58;;;;;;;;;;;;;;;7.41;57.18;97549.94;5088367;28;19981;-56
2023/03/18 00:58:26;;;;;;;;;;;;;;;7.45;56.44;97552.81;5101183;28;19931;-56
2023/03/18 01:00:53;;;;;;;;;;;;;;;7.37;56.73;97542.72;5080679;28;19929;-56
2023/03/18 01:03:25;;;;;;;;;;;;;;;7.35;56.57;97545.72;5084375;28;19948;-56
2023/03/18 01:05:53;;;;;;;;;;;;;;;7.31;56.61;97542.81;5080060;28;19975;-56
2023/03/18 01:08:21;;;;;;;;;;;;;;;7.15;57.25;97529.88;5079839;28;19936;-56
2023/03/18 01:10:52;;;;;;;;;;;;;;;7.22;57.14;97541.91;5081238;28;19952;-56
2023/03/18 01:13:20;;;;;;;;;;;;;;;7.23;56.51;97540.78;5081610;28;19935;-56
2023/03/18 01:15:48;;;;;;;;;;;;;;;7.23;56.21;97540.00;5085116;28;19931;-56
2023/03/18 01:18:15;;;;;;;;;;;;;;;7.25;55.87;97540.50;5095664;28;19928;-56
2023/03/18 01:20:44;;;;;;;;;;;;;;;7.31;56.00;97534.72;5078239;28;19931;-58
2023/03/18 01:23:13;;;;;;;;;;;;;;;7.16;56.11;97537.69;5089999;28;20299;-56
2023/03/18 01:25:43;;;;;;;;;;;;;;;7.21;55.74;97547.59;5088758;28;19963;-57
2023/03/18 01:28:16;;;;;;;;;;;;;;;7.31;55.71;97550.13;5092963;28;20286;-57
2023/03/18 01:30:44;;;;;;;;;;;;;;;7.13;55.91;97550.97;5088681;28;19925;-56
2023/03/18 01:33:12;;;;;;;;;;;;;;;7.09;56.74;97542.69;5087069;28;20419;-56
2023/03/18 01:35:40;;;;;;;;;;;;;;;6.99;57.00;97543.66;5087780;28;19959;-56
2023/03/18 01:38:10;;;;;;;;;;;;;;;6.99;56.66;97545.56;5100263;28;19928;-56
2023/03/18 01:40:39;;;;;;;;;;;;;;;7.02;56.87;97547.66;5088919;28;19931;-56
2023/03/18 01:43:15;;;;;;;;;;;;;;;7.02;56.46;97553.84;5103548;28;19993;-57
2023/03/18 01:45:44;;;;;;;;;;;;;;;7.02;57.04;97558.47;5085910;28;20385;-56
2023/03/18 01:48:13;;;;;;;;;;;;;;;6.80;57.02;97554.50;5081211;28;19931;-56
2023/03/18 01:50:42;;;;;;;;;;;;;;;6.80;57.31;97557.19;5065488;28;19928;-56
2023/03/18 01:53:12;;;;;;;;;;;;;;;6.83;57.22;97558.53;5088833;28;19930;-56
2023/03/18 01:55:39;;;;;;;;;;;;;;;6.78;57.04;97555.91;5088238;28;19924;-57
2023/03/18 01:58:08;;;;;;;;;;;;;;;6.75;57.26;97554.59;5085144;28;19935;-56
2023/03/18 02:00:37;;;;;;;;;;;;;;;6.69;57.66;97549.56;5090171;28;19927;-56
2023/03/18 02:03:06;;;;;;;;;;;;;;;6.83;57.43;97562.03;5087818;28;19929;-56
2023/03/18 02:05:34;;;;;;;;;;;;;;;6.81;57.41;97569.59;5088259;28;20270;-56
2023/03/18 02:08:02;;;;;;;;;;;;;;;6.88;57.32;97566.53;5080943;28;20535;-56
2023/03/18 02:10:32;;;;;;;;;;;;;;;6.70;57.78;97572.75;5086881;28;19927;-59
2023/03/18 02:13:01;;;;;;;;;;;;;;;6.60;58.51;97571.00;5090914;28;19947;-56
2023/03/18 02:15:34;;;;;;;;;;;;;;;6.69;58.17;97566.56;5087291;28;19924;-56
2023/03/18 02:18:04;;;;;;;;;;;;;;;6.86;57.99;97573.31;5086300;28;19936;-56
2023/03/18 02:20:45;;;;;;;;;;;;;;;6.75;58.06;97578.06;5079076;28;19932;-57
2023/03/18 02:23:22;;;;;;;;;;;;;;;6.63;58.48;97578.53;5078626;28;19932;-57
2023/03/18 02:25:53;;;;;;;;;;;;;;;6.52;58.91;97579.78;5090137;28;19964;-56
2023/03/18 02:28:23;;;;;;;;;;;;;;;6.56;58.93;97580.81;5086707;28;19978;-56
2023/03/18 02:30:52;;;;;;;;;;;;;;;6.53;59.29;97584.88;5083819;28;19924;-56
2023/03/18 02:33:22;;;;;;;;;;;;;;;6.52;59.11;97587.88;5080480;28;19963;-56
2023/03/18 02:35:50;;;;;;;;;;;;;;;6.46;59.59;97591.75;5082359;28;19931;-56
2023/03/18 02:38:18;;;;;;;;;;;;;;;6.42;59.87;97588.03;5069294;28;19940;-57
2023/03/18 02:40:47;;;;;;;;;;;;;;;6.44;59.92;97588.53;5076874;28;19928;-56
2023/03/18 02:43:21;;;;;;;;;;;;;;;6.51;59.76;97583.59;5082953;28;19932;-56
2023/03/18 02:46:12;;;;;;;;;;;;;;;6.59;59.58;97585.63;5096429;28;19973;-56
2023/03/18 02:48:42;;;;;;;;;;;;;;;6.63;59.24;97588.53;5081620;28;20305;-56
2023/03/18 02:51:11;;;;;;;;;;;;;;;6.44;60.07;97602.03;5076918;28;20289;-56
2023/03/18 02:53:40;;;;;;;;;;;;;;;6.43;59.93;97603.13;5085504;28;19925;-56
2023/03/18 02:56:08;;;;;;;;;;;;;;;6.49;60.02;97602.75;5095036;28;20364;-56
2023/03/18 02:58:37;;;;;;;;;;;;;;;6.42;60.39;97599.63;5081060;28;20396;-56
2023/03/18 03:01:06;;;;;;;;;;;;;;;6.38;60.23;97597.78;5092057;28;20026;-56
2023/03/18 03:03:37;;;;;;;;;;;;;;;6.37;60.17;97591.59;5075741;28;20011;-56
2023/03/18 03:06:06;;;;;;;;;;;;;;;6.22;60.41;97594.50;5077622;28;19964;-56
2023/03/18 03:08:34;;;;;;;;;;;;;;;6.23;60.55;97596.94;5094219;28;19942;-56
2023/03/18 03:11:04;;;;;;;;;;;;;;;6.39;60.41;97605.63;5080233;28;19931;-56
2023/03/18 03:13:35;;;;;;;;;;;;;;;6.18;61.04;97606.97;5084350;28;19928;-56
2023/03/18 03:16:03;;;;;;;;;;;;;;;6.18;60.98;97610.50;5097567;28;20315;-56
2023/03/18 03:18:34;;;;;;;;;;;;;;;6.21;60.63;97615.28;5073752;28;19945;-56
2023/03/18 03:21:05;;;;;;;;;;;;;;;6.11;60.72;97620.81;5073820;28;19934;-56
2023/03/18 03:23:32;;;;;;;;;;;;;;;6.09;61.28;97628.41;5077915;28;19942;-56
2023/03/18 03:26:01;;;;;;;;;;;;;;;6.08;60.84;97615.22;5086866;28;19939;-56
2023/03/18 03:28:29;;;;;;;;;;;;;;;6.09;61.26;97622.19;5074417;28;19939;-56
2023/03/18 03:30:57;;;;;;;;;;;;;;;6.08;61.46;97618.72;5077229;28;19942;-56
2023/03/18 03:33:25;;;;;;;;;;;;;;;6.02;61.29;97620.66;5088485;28;19939;-56
2023/03/18 03:35:53;;;;;;;;;;;;;;;6.00;61.72;97619.34;5086679;28;19924;-56
2023/03/18 03:38:23;;;;;;;;;;;;;;;6.05;61.40;97621.97;5079305;28;19938;-57
2023/03/18 03:40:54;;;;;;;;;;;;;;;5.92;61.71;97620.00;5099682;28;19965;-57
2023/03/18 03:43:22;;;;;;;;;;;;;;;5.90;61.87;97630.22;5090225;28;19934;-56
2023/03/18 03:45:50;;;;;;;;;;;;;;;5.93;62.02;97629.69;5092662;28;20232;-56
2023/03/18 03:48:18;;;;;;;;;;;;;;;5.81;62.46;97626.56;5085734;28;19924;-56
2023/03/18 03:50:46;;;;;;;;;;;;;;;5.67;63.09;97621.84;5100311;28;19973;-57
2023/03/18 03:53:14;;;;;;;;;;;;;;;5.72;63.24;97619.09;5081762;28;20343;-56
2023/03/18 03:55:43;;;;;;;;;;;;;;;5.67;63.04;97627.22;5081698;28;19996;-56
2023/03/18 03:58:11;;;;;;;;;;;;;;;5.58;63.70;97623.53;5083552;28;20310;-56
2023/03/18 04:00:42;;;;;;;;;;;;;;;5.61;63.72;97628.38;5080517;28;19985;-56
2023/03/18 04:03:10;;;;;;;;;;;;;;;5.61;63.48;97624.88;5092329;28;20307;-56
2023/03/18 04:05:38;;;;;;;;;;;;;;;5.63;63.47;97626.19;5102567;28;19935;-56
2023/03/18 04:08:06;;;;;;;;;;;;;;;5.70;63.05;97636.63;5095102;28;20426;-56
2023/03/18 04:10:37;;;;;;;;;;;;;;;5.58;63.59;97631.63;5096474;28;19949;-56
2023/03/18 04:13:17;;;;;;;;;;;;;;;5.65;63.52;97632.13;5095442;28;19938;-59
2023/03/18 04:15:46;;;;;;;;;;;;;;;5.76;63.57;97640.91;5086266;28;19961;-56
2023/03/18 04:18:18;;;;;;;;;;;;;;;5.67;63.56;97640.72;5078077;28;20660;-56
2023/03/18 04:20:46;;;;;;;;;;;;;;;5.83;63.31;97640.53;5090005;28;20003;-57
2023/03/18 04:23:34;;;;;;;;;;;;;;;5.79;63.63;97640.31;5096896;28;19969;-56
2023/03/18 04:26:04;;;;;;;;;;;;;;;5.68;63.74;97639.63;5090375;28;20404;-56
2023/03/18 04:28:34;;;;;;;;;;;;;;;5.73;63.79;97636.06;5086562;28;19981;-58
2023/03/18 04:31:04;;;;;;;;;;;;;;;5.62;64.03;97634.56;5075377;28;20003;-56
2023/03/18 04:33:33;;;;;;;;;;;;;;;5.68;64.00;97631.53;5088956;28;19938;-56
2023/03/18 04:36:01;;;;;;;;;;;;;;;5.72;63.77;97637.16;5085462;28;20870;-56
2023/03/18 04:38:31;;;;;;;;;;;;;;;5.61;64.47;97633.78;5103315;28;20019;-56
2023/03/18 04:40:59;;;;;;;;;;;;;;;5.60;64.34;97632.16;5097578;28;19989;-56
2023/03/18 04:43:30;;;;;;;;;;;;;;;5.58;64.56;97628.94;5094264;28;20425;-56
2023/03/18 04:46:00;;;;;;;;;;;;;;;5.49;64.65;97628.78;5097299;28;19934;-56
2023/03/18 04:48:30;;;;;;;;;;;;;;;5.44;65.29;97628.03;5077772;28;20314;-57
2023/03/18 04:51:01;;;;;;;;;;;;;;;5.49;64.59;97625.28;5087690;28;19971;-56
2023/03/18 04:53:33;;;;;;;;;;;;;;;5.51;65.00;97631.19;5081460;28;19974;-56
2023/03/18 04:56:01;;;;;;;;;;;;;;;5.51;64.60;97628.47;5097609;28;19958;-56
2023/03/18 04:58:37;;;;;;;;;;;;;;;5.35;65.01;97633.22;5081248;28;19934;-56
2023/03/18 05:01:18;;;;;;;;;;;;;;;5.32;65.57;97646.44;5083915;28;19934;-56
2023/03/18 05:03:46;;;;;;;;;;;;;;;5.34;65.11;97636.19;5088678;28;19939;-56
2023/03/18 05:06:16;;;;;;;;;;;;;;;5.22;66.07;97636.59;5087967;28;19953;-56
2023/03/18 05:08:53;;;;;;;;;;;;;;;5.31;65.85;97634.06;5084753;28;20058;-56
2023/03/18 05:11:23;;;;;;;;;;;;;;;5.41;65.41;97637.47;5098336;28;19931;-57
2023/03/18 05:13:52;;;;;;;;;;;;;;;5.45;64.96;97645.78;5083063;28;19935;-56
2023/03/18 05:16:22;;;;;;;;;;;;;;;5.32;65.57;97644.53;5087622;28;19974;-57
2023/03/18 05:18:50;;;;;;;;;;;;;;;5.29;66.30;97644.31;5076584;28;20420;-56
2023/03/18 05:21:18;;;;;;;;;;;;;;;5.32;65.97;97643.75;5092683;28;19939;-56
2023/03/18 05:23:46;;;;;;;;;;;;;;;5.30;66.15;97638.66;5072484;28;20850;-57
2023/03/18 05:26:15;;;;;;;;;;;;;;;5.33;65.91;97642.69;5093826;28;19928;-56
2023/03/18 05:28:45;;;;;;;;;;;;;;;5.37;66.00;97644.50;5092650;28;19965;-56
2023/03/18 05:31:24;;;;;;;;;;;;;;;5.32;65.98;97646.44;5091969;28;19964;-56
2023/03/18 05:33:53;;;;;;;;;;;;;;;5.32;65.90;97652.63;5082024;28;20299;-56
2023/03/18 05:36:28;;;;;;;;;;;;;;;5.45;65.33;97648.47;5089043;28;19950;-56
2023/03/18 05:39:03;;;;;;;;;;;;;;;5.46;65.51;97642.81;5090956;28;19938;-56
2023/03/18 05:41:31;;;;;;;;;;;;;;;5.39;65.57;97645.03;5106654;28;19953;-56
2023/03/18 05:44:00;;;;;;;;;;;;;;;5.44;65.34;97649.56;5094700;28;19928;-56
2023/03/18 05:46:34;;;;;;;;;;;;;;;5.44;65.24;97649.56;5088031;28;19923;-57
2023/03/18 05:49:18;;;;;;;;;;;;;;;5.31;65.33;97656.41;5107380;28;20014;-56
2023/03/18 05:52:06;;;;;;;;;;;;;;;5.42;65.61;97647.16;5099706;28;19928;-56
2023/03/18 05:54:42;;;;;;;;;;;;;;;5.43;66.13;97646.09;5091305;28;19958;-56
2023/03/18 05:57:10;;;;;;;;;;;;;;;5.46;65.45;97647.41;5103450;28;20000;-59
2023/03/18 05:59:38;;;;;;;;;;;;;;;5.49;65.70;97641.44;5105639;28;19935;-61
2023/03/18 06:02:08;;;;;;;;;;;;;;;5.49;65.60;97652.22;5103095;28;20418;-58
2023/03/18 06:04:36;;;;;;;;;;;;;;;5.53;65.27;97659.44;5103527;28;19939;-56
2023/03/18 06:07:06;;;;;;;;;;;;;;;5.49;65.52;97649.53;5098033;28;19942;-55
2023/03/18 06:09:34;;;;;;;;;;;;;;;5.55;65.61;97659.16;5093255;28;19958;-56
2023/03/18 06:12:02;;;;;;;;;;;;;;;5.61;64.71;97649.94;5093822;28;19963;-55
2023/03/18 06:14:30;;;;;;;;;;;;;;;5.65;64.63;97653.69;5105986;28;19924;-56
2023/03/18 06:17:01;;;;;;;;;;;;;;;5.69;64.65;97657.38;5091413;28;19924;-55
2023/03/18 06:19:31;;;;;;;;;;;;;;;5.68;64.85;97655.78;5099293;28;19930;-54
2023/03/18 06:21:58;;;;;;;;;;;;;;;5.96;63.94;97658.75;5086157;28;20339;-54
2023/03/18 06:24:27;;;;;;;;;;;;;;;6.11;63.53;97663.16;5091860;28;19934;-54
2023/03/18 06:26:57;;;;;;;;;;;;;;;6.24;63.16;97657.88;5079757;28;19924;-55
2023/03/18 06:29:25;;;;;;;;;;;;;;;6.30;62.71;97662.13;5106227;28;19983;-54
2023/03/18 06:31:56;;;;;;;;;;;;;;;6.12;63.82;97665.56;5106014;28;20035;-55
2023/03/18 06:34:28;;;;;;;;;;;;;;;6.06;63.84;97660.53;5088400;28;19930;-54
2023/03/18 06:36:57;;;;;;;;;;;;;;;6.11;63.59;97657.78;5092324;28;19924;-56
2023/03/18 06:39:27;;;;;;;;;;;;;;;6.41;63.39;97662.00;5089914;28;20387;-55
2023/03/18 06:41:55;;;;;;;;;;;;;;;6.23;63.45;97658.97;5106557;28;19985;-54
2023/03/18 06:44:49;;;;;;;;;;;;;;;6.22;63.40;97662.75;5089474;28;19924;-54
2023/03/18 06:47:26;;;;;;;;;;;;;;;6.40;62.95;97663.09;5097336;28;20511;-55
2023/03/18 06:49:56;;;;;;;;;;;;;;;6.52;62.67;97671.56;5105557;28;19930;-54
2023/03/18 06:52:37;;;;;;;;;;;;;;;6.46;62.58;97670.03;5090345;28;20373;-54
2023/03/18 06:55:10;;;;;;;;;;;;;;;6.65;62.72;97675.41;5100680;28;20037;-54
2023/03/18 06:57:40;;;;;;;;;;;;;;;6.76;62.11;97680.38;5081790;28;19924;-55
2023/03/18 07:00:14;;;;;;;;;;;;;;;6.85;62.11;97677.81;5107767;28;20331;-54
2023/03/18 07:02:42;;;;;;;;;;;;;;;6.88;61.29;97679.97;5088918;28;19938;-55
2023/03/18 07:05:13;;;;;;;;;;;;;;;6.88;62.18;97681.84;5085784;28;19931;-56
2023/03/18 07:07:45;;;;;;;;;;;;;;;6.68;62.01;97685.63;5089438;28;19923;-55
2023/03/18 07:10:16;;;;;;;;;;;;;;;6.64;61.92;97685.41;5093324;28;20050;-55
2023/03/18 07:12:44;;;;;;;;;;;;;;;6.54;62.04;97688.25;5089059;28;19942;-55
2023/03/18 07:15:12;;;;;;;;;;;;;;;6.47;62.58;97690.50;5101750;28;20373;-56
2023/03/18 07:17:40;;;;;;;;;;;;;;;6.34;63.48;97693.91;5089714;28;19949;-56
2023/03/18 07:20:08;;;;;;;;;;;;;;;6.49;63.08;97704.50;5090767;28;19923;-60
2023/03/18 07:22:37;;;;;;;;;;;;;;;6.74;62.62;97698.78;5099037;28;19988;-56
2023/03/18 07:25:07;;;;;;;;;;;;;;;6.76;61.66;97695.78;5085906;28;19924;-55
2023/03/18 07:27:35;;;;;;;;;;;;;;;6.77;62.24;97698.19;5089451;28;20411;-56
2023/03/18 07:30:04;;;;;;;;;;;;;;;6.95;61.68;97701.19;5088827;28;19945;-55
2023/03/18 07:32:33;;;;;;;;;;;;;;;7.20;61.82;97705.41;5088169;28;19967;-52
2023/03/18 07:36:04;;;;;;;;;;;;;;;7.20;60.64;97702.72;5074506;27;19990;-55
2023/03/18 07:38:32;;;;;;;;;;;;;;;7.13;60.62;97708.47;5059612;28;19958;-56
2023/03/18 07:41:00;;;;;;;;;;;;;;;6.96;61.81;97708.19;5064939;28;20389;-55
2023/03/18 07:43:28;;;;;;;;;;;;;;;7.14;61.34;97712.78;5142936;22;19932;-71
2023/03/18 07:45:57;;;;;;;;;;;;;;;7.29;60.74;97712.53;5062287;28;20302;-72
2023/03/18 07:48:25;;;;;;;;;;;;;;;7.37;60.71;97718.38;5063447;28;19925;-74
2023/03/18 07:50:52;;;;;;;;;;;;;;;7.32;60.32;97717.34;5069183;28;20623;-74
2023/03/18 07:53:22;;;;;;;;;;;;;;;7.42;60.41;97726.41;5065758;28;20002;-72
2023/03/18 07:55:49;;;;;;;;;;;;;;;7.67;59.98;97727.88;5084086;28;19924;-70
2023/03/18 07:58:18;;;;;;;;;;;;;;;7.80;59.35;97724.41;5060867;28;20014;-70
2023/03/18 08:00:46;;;;;;;;;;;;;;;7.91;59.11;97727.72;5067146;28;19924;-74
2023/03/18 08:03:13;;;;;;;;;;;;;;;8.15;58.58;97728.38;5069611;28;19928;-79
2023/03/18 08:05:41;;;;;;;;;;;;;;;8.24;58.73;97726.56;5068604;28;20329;-74
2023/03/18 08:08:09;;;;;;;;;;;;;;;8.43;57.86;97737.31;5068647;28;19950;-75
2023/03/18 08:10:39;;;;;;;;;;;;;;;8.62;57.97;97740.69;5069618;28;19959;-76
2023/03/18 08:13:06;;;;;;;;;;;;;;;8.80;57.37;97730.06;5074558;28;20313;-75
2023/03/18 08:15:34;;;;;;;;;;;;;;;8.85;57.34;97725.34;5068856;28;20329;-78
2023/03/18 08:18:02;;;;;;;;;;;;;;;8.89;57.51;97726.34;5068440;28;20440;-76
2023/03/18 08:20:33;;;;;;;;;;;;;;;8.77;57.33;97736.09;5069074;28;19930;-70
2023/03/18 08:23:02;;;;;;;;;;;;;;;8.76;57.20;97740.69;5063672;28;19925;-70
2023/03/18 08:25:30;;;;;;;;;;;;;;;8.73;57.74;97744.00;5063245;28;19939;-76
2023/03/18 08:28:00;;;;;;;;;;;;;;;8.99;56.97;97738.03;5065136;28;19932;-76
2023/03/18 08:30:29;;;;;;;;;;;;;;;9.30;56.75;97738.16;5059069;28;19932;-73
2023/03/18 08:32:57;;;;;;;;;;;;;;;9.42;56.41;97736.50;5063943;28;19924;-76
2023/03/18 08:35:25;;;;;;;;;;;;;;;9.58;55.93;97749.69;5064089;28;19935;-71
2023/03/18 08:37:54;;;;;;;;;;;;;;;9.71;55.69;97749.63;5072079;28;19924;-71
2023/03/18 08:40:23;;;;;;;;;;;;;;;9.85;55.52;97744.13;5054914;28;19978;-72
2023/03/18 08:42:51;;;;;;;;;;;;;;;10.07;54.84;97739.78;5060716;28;20011;-71
2023/03/18 08:45:20;;;;;;;;;;;;;;;10.15;54.63;97741.72;5064313;28;19970;-70
2023/03/18 08:47:48;;;;;;;;;;;;;;;10.24;54.56;97745.31;5064008;28;19943;-71
2023/03/18 08:50:16;;;;;;;;;;;;;;;10.30;54.42;97744.06;5064097;28;19959;-72
2023/03/18 08:52:44;;;;;;;;;;;;;;;10.38;54.55;97735.13;5057849;28;19940;-72
2023/03/18 08:55:12;;;;;;;;;;;;;;;10.48;54.45;97736.78;5054240;28;19946;-71
2023/03/18 08:57:41;;;;;;;;;;;;;;;10.51;53.98;97738.88;5046296;28;20418;-73
2023/03/18 09:00:10;;;;;;;;;;;;;;;10.62;53.61;97739.38;5048512;28;20406;-76
2023/03/18 09:02:40;;;;;;;;;;;;;;;10.80;53.33;97734.78;5052741;28;19935;-76
2023/03/18 09:05:08;;;;;;;;;;;;;;;10.89;52.83;97733.69;5043343;28;19959;-71
2023/03/18 09:07:36;;;;;;;;;;;;;;;11.16;52.45;97737.22;5057639;28;19924;-72
2023/03/18 09:10:04;;;;;;;;;;;;;;;11.39;51.65;97733.22;5050919;28;19932;-68
2023/03/18 09:12:32;;;;;;;;;;;;;;;11.55;50.90;97728.09;5056964;28;20394;-68
2023/03/18 09:15:00;;;;;;;;;;;;;;;11.61;50.72;97729.56;5051064;28;19929;-67
2023/03/18 09:17:28;;;;;;;;;;;;;;;11.67;50.09;97730.97;5053491;28;20366;-68
2023/03/18 09:20:17;;;;;;;;;;;;;;;11.87;50.59;97724.06;5054103;28;20017;-72
2023/03/18 09:22:46;;;;;;;;;;;;;;;11.98;50.50;97725.31;5042842;28;19939;-72
2023/03/18 09:25:15;;;;;;;;;;;;;;;12.12;50.10;97724.31;5048738;28;20042;-69
2023/03/18 09:27:44;;;;;;;;;;;;;;;12.30;48.98;97725.84;5053196;28;19946;-67
2023/03/18 09:30:12;;;;;;;;;;;;;;;12.37;48.76;97723.44;5050588;28;19943;-70
2023/03/18 09:32:40;;;;;;;;;;;;;;;12.40;49.03;97725.47;5045596;28;19935;-69
2023/03/18 09:35:09;;;;;;;;;;;;;;;12.49;49.23;97723.53;5051185;28;19939;-68
2023/03/18 09:37:41;;;;;;;;;;;;;;;12.61;48.85;97727.47;5046604;28;20396;-73
2023/03/18 09:40:11;;;;;;;;;;;;;;;12.62;48.09;97718.16;5072945;28;19961;-72
2023/03/18 09:42:46;;;;;;;;;;;;;;;12.82;47.32;97717.41;5052284;28;19940;-74
2023/03/18 09:45:16;;;;;;;;;;;;;;;13.02;46.84;97724.81;5055756;28;19963;-72
2023/03/18 09:47:56;;;;;;;;;;;;;;;13.13;46.38;97727.16;5053177;28;20306;-75
2023/03/18 09:50:27;;;;;;;;;;;;;;;13.37;46.26;97719.16;5056276;28;19935;-73
2023/03/18 09:53:00;;;;;;;;;;;;;;;13.54;45.76;97719.00;5046469;28;19975;-69
2023/03/18 09:55:30;;;;;;;;;;;;;;;13.56;46.00;97719.44;5041034;28;20409;-72
2023/03/18 09:58:00;;;;;;;;;;;;;;;13.78;45.10;97722.94;5049416;28;20291;-73
2023/03/18 10:00:28;;;;;;;;;;;;;;;13.76;44.40;97723.28;5045414;28;19925;-74
2023/03/18 10:02:57;;;;;;;;;;;;;;;13.81;44.92;97722.25;5049795;28;19948;-76
2023/03/18 10:05:26;;;;;;;;;;;;;;;14.18;43.89;97719.63;5050010;28;20409;-70
2023/03/18 10:07:54;;;;;;;;;;;;;;;14.10;44.18;97729.50;5063747;28;20011;-78
2023/03/18 10:10:24;;;;;;;;;;;;;;;14.45;42.43;97727.16;5051639;28;19933;-70
2023/03/18 10:12:55;;;;;;;;;;;;;;;14.54;41.78;97722.41;5049754;28;19932;-70
2023/03/18 10:15:24;;;;;;;;;;;;;;;14.57;41.96;97731.84;5047880;28;19933;-71
2023/03/18 10:17:53;;;;;;;;;;;;;;;14.62;42.27;97735.16;5048574;28;19935;-70
2023/03/18 10:20:25;;;;;;;;;;;;;;;14.80;41.97;97726.72;5051663;28;19924;-75
2023/03/18 10:22:58;;;;;;;;;;;;;;;14.77;41.94;97725.47;5051380;28;19983;-71
2023/03/18 10:25:28;;;;;;;;;;;;;;;14.80;41.20;97729.44;5050284;28;19929;-69
2023/03/18 10:28:03;;;;;;;;;;;;;;;14.99;41.16;97726.13;5053615;28;19929;-76
2023/03/18 10:30:36;;;;;;;;;;;;;;;15.12;40.68;97727.69;5048813;28;20012;-70
2023/03/18 10:33:06;;;;;;;;;;;;;;;15.06;40.18;97720.88;5053941;28;19931;-71
2023/03/18 10:35:37;;;;;;;;;;;;;;;15.22;41.01;97719.00;5046555;28;19950;-70
2023/03/18 10:38:07;;;;;;;;;;;;;;;15.31;39.56;97721.63;5060317;28;19948;-78
2023/03/18 10:40:37;;;;;;;;;;;;;;;15.41;39.16;97712.91;5049397;28;19925;-72
2023/03/18 10:43:06;;;;;;;;;;;;;;;15.48;38.17;97706.84;5048487;28;19940;-71
2023/03/18 10:45:34;;;;;;;;;;;;;;;15.61;38.01;97709.19;5049602;28;19936;-75
2023/03/18 10:48:04;;;;;;;;;;;;;;;15.74;37.54;97709.16;5053350;28;19924;-70
2023/03/18 10:50:33;;;;;;;;;;;;;;;15.71;37.08;97706.00;5042888;28;19933;-68
2023/03/18 10:53:04;;;;;;;;;;;;;;;15.76;37.31;97699.44;5050455;28;19925;-67
2023/03/18 10:55:34;;;;;;;;;;;;;;;15.74;37.45;97692.72;5052154;28;19929;-72
2023/03/18 10:58:05;;;;;;;;;;;;;;;15.87;37.18;97694.25;5053270;28;19950;-73
2023/03/18 11:00:33;;;;;;;;;;;;;;;15.94;37.54;97697.19;5049795;28;19924;-68
2023/03/18 11:03:03;;;;;;;;;;;;;;;15.90;37.51;97691.59;5050894;28;19986;-67
2023/03/18 11:05:32;;;;;;;;;;;;;;;15.93;37.56;97690.91;5046202;28;19929;-70
2023/03/18 11:08:02;;;;;;;;;;;;;;;15.95;37.05;97690.56;5049854;28;19935;-71
2023/03/18 11:10:32;;;;;;;;;;;;;;;15.88;38.60;97693.13;5045498;28;19986;-69
2023/03/18 11:13:03;;;;;;;;;;;;;;;15.97;37.93;97691.78;5041079;28;19928;-70
2023/03/18 11:15:32;;;;;;;;;;;;;;;15.95;36.85;97677.66;5041210;28;19936;-72
2023/03/18 11:18:01;;;;;;;;;;;;;;;16.06;37.37;97682.63;5045884;28;19925;-74
2023/03/18 11:20:41;;;;;;;;;;;;;;;16.26;37.27;97684.31;5049063;28;20375;-69
2023/03/18 11:23:16;;;;;;;;;;;;;;;16.30;37.22;97679.72;5063657;28;19933;-70
2023/03/18 11:25:47;;;;;;;;;;;;;;;16.43;38.30;97683.13;5045886;28;19933;-70
2023/03/18 11:28:21;;;;;;;;;;;;;;;16.33;38.31;97678.19;5049264;28;19936;-70
2023/03/18 11:30:51;;;;;;;;;;;;;;;16.29;37.36;97677.31;5049984;28;20364;-70
2023/03/18 11:33:20;;;;;;;;;;;;;;;16.18;37.49;97672.34;5062623;28;19925;-72
2023/03/18 11:35:50;;;;;;;;;;;;;;;16.35;37.44;97675.88;5046856;28;19947;-71
2023/03/18 11:38:19;;;;;;;;;;;;;;;16.48;36.22;97680.94;5044471;28;19931;-71
2023/03/18 11:40:47;;;;;;;;;;;;;;;16.48;36.04;97672.69;5049882;28;19932;-71
2023/03/18 11:43:17;;;;;;;;;;;;;;;16.44;35.93;97676.50;5050147;28;19933;-69
2023/03/18 11:45:56;;;;;;;;;;;;;;;16.50;36.23;97664.09;5064415;28;19925;-71
2023/03/18 11:48:29;;;;;;;;;;;;;;;16.48;36.85;97671.91;5040467;28;19932;-69
2023/03/18 11:51:01;;;;;;;;;;;;;;;16.44;37.39;97668.28;5055050;28;19977;-69
2023/03/18 11:53:30;;;;;;;;;;;;;;;16.43;36.43;97666.69;5042985;28;19932;-70
2023/03/18 11:56:05;;;;;;;;;;;;;;;16.60;36.26;97663.56;5069089;28;20020;-70
2023/03/18 11:58:54;;;;;;;;;;;;;;;16.62;36.42;97658.53;5051467;28;19932;-71
2023/03/18 12:01:26;;;;;;;;;;;;;;;16.68;35.57;97653.56;5053389;28;19924;-71
2023/03/18 12:04:08;;;;;;;;;;;;;;;16.73;35.98;97648.63;5054541;28;19931;-71
2023/03/18 12:06:37;;;;;;;;;;;;;;;16.77;35.97;97652.22;5054563;28;19935;-71
2023/03/18 12:09:06;;;;;;;;;;;;;;;16.72;35.12;97641.56;5054027;28;19932;-71
2023/03/18 12:11:52;;;;;;;;;;;;;;;16.68;35.51;97643.38;5050132;28;20346;-71
2023/03/18 12:14:21;;;;;;;;;;;;;;;16.57;36.57;97636.06;5052635;28;19925;-70
2023/03/18 12:16:55;;;;;;;;;;;;;;;16.70;35.88;97632.84;5053498;28;19932;-70
2023/03/18 12:19:28;;;;;;;;;;;;;;;16.73;35.72;97631.38;5050410;28;19932;-69
2023/03/18 12:21:59;;;;;;;;;;;;;;;16.75;35.68;97640.81;5047987;28;19929;-70
2023/03/18 12:24:31;;;;;;;;;;;;;;;16.74;34.46;97631.00;5061443;28;19957;-72
2023/03/18 12:27:02;;;;;;;;;;;;;;;16.82;34.92;97622.94;5078117;28;19925;-72
2023/03/18 12:29:37;;;;;;;;;;;;;;;16.97;34.30;97633.06;5061951;28;19957;-70
2023/03/18 12:32:08;;;;;;;;;;;;;;;17.05;34.76;97614.81;5046864;28;19924;-70
2023/03/18 12:34:43;;;;;;;;;;;;;;;16.99;35.50;97623.31;5072918;28;19977;-75
2023/03/18 12:37:16;;;;;;;;;;;;;;;16.91;34.35;97618.81;5039536;28;19925;-76
2023/03/18 12:39:51;;;;;;;;;;;;;;;16.79;34.76;97621.72;5038508;28;19953;-76
2023/03/18 12:42:19;;;;;;;;;;;;;;;16.80;35.15;97611.53;5045531;28;19929;-76
2023/03/18 12:44:56;;;;;;;;;;;;;;;16.84;35.10;97623.38;5055124;28;20781;-72
2023/03/18 12:47:28;;;;;;;;;;;;;;;16.83;34.67;97614.34;5052819;28;19978;-72
2023/03/18 12:49:57;;;;;;;;;;;;;;;16.70;35.44;97610.91;5060164;28;19979;-70
2023/03/18 12:52:26;;;;;;;;;;;;;;;16.76;35.03;97609.50;5051989;28;19932;-70
2023/03/18 12:54:56;;;;;;;;;;;;;;;16.80;35.97;97603.28;5065128;28;19932;-73
2023/03/18 12:57:26;;;;;;;;;;;;;;;16.86;34.76;97613.63;5055578;28;20010;-73
2023/03/18 12:59:56;;;;;;;;;;;;;;;16.87;35.61;97617.94;5056854;28;19948;-74
2023/03/18 13:02:38;;;;;;;;;;;;;;;16.91;33.85;97613.34;5058173;28;19948;-74
2023/03/18 13:05:13;;;;;;;;;;;;;;;16.96;34.39;97610.31;5043782;28;19931;-70
2023/03/18 13:07:43;;;;;;;;;;;;;;;16.85;34.64;97611.25;5049013;28;19924;-70
2023/03/18 13:10:16;;;;;;;;;;;;;;;16.93;34.25;97602.00;5053715;28;19925;-70